createdAt,value
2022-12-26T00:01:57.230Z,8.70
2022-12-26T00:04:49.352Z,8.63
2022-12-26T00:07:11.661Z,8.63
2022-12-26T00:09:38.722Z,8.67
2022-12-26T00:12:06.294Z,8.70
2022-12-26T00:14:33.405Z,8.67
2022-12-26T00:17:00.541Z,8.71
2022-12-26T00:19:27.677Z,8.61
2022-12-26T00:21:54.796Z,8.70
2022-12-26T00:24:21.951Z,8.71
2022-12-26T00:26:49.163Z,8.54
2022-12-26T00:29:16.320Z,8.65
2022-12-26T00:31:43.471Z,8.66
2022-12-26T00:34:10.954Z,8.72
2022-12-26T00:36:37.973Z,8.70
2022-12-26T00:39:05.024Z,8.73
2022-12-26T00:41:32.865Z,8.74
2022-12-26T00:44:00.085Z,8.70
2022-12-26T00:46:28.518Z,8.81
2022-12-26T00:48:56.027Z,8.82
2022-12-26T00:51:23.192Z,8.76
2022-12-26T00:53:50.397Z,8.79
2022-12-26T00:56:17.823Z,8.81
2022-12-26T00:58:45.011Z,8.82
2022-12-26T01:01:23.414Z,8.91
2022-12-26T01:03:51.559Z,8.88
2022-12-26T01:06:19.123Z,8.92
2022-12-26T01:08:46.350Z,8.95
2022-12-26T01:11:36.324Z,8.96
2022-12-26T01:14:04.435Z,8.89
2022-12-26T01:16:31.637Z,9.01
2022-12-26T01:18:58.775Z,8.95
2022-12-26T01:21:25.789Z,9.06
2022-12-26T01:23:52.924Z,9.09
2022-12-26T01:26:20.244Z,9.10
2022-12-26T01:28:53.429Z,9.12
2022-12-26T01:31:21.984Z,9.18
2022-12-26T01:33:49.467Z,9.05
2022-12-26T01:36:18.412Z,9.13
2022-12-26T01:38:46.347Z,9.19
2022-12-26T01:41:17.340Z,9.19
2022-12-26T01:43:53.838Z,9.20
2022-12-26T01:46:45.042Z,9.22
2022-12-26T01:49:33.886Z,9.13
2022-12-26T01:52:09.621Z,9.14
2022-12-26T01:54:42.931Z,9.20
2022-12-26T01:57:27.504Z,9.18
2022-12-26T01:59:57.392Z,9.15
2022-12-26T02:02:29.122Z,9.26
2022-12-26T02:05:16.481Z,9.24
2022-12-26T02:07:47.072Z,9.18
2022-12-26T02:10:22.160Z,9.24
2022-12-26T02:12:50.625Z,9.21
2022-12-26T02:15:18.820Z,9.19
2022-12-26T02:17:48.951Z,9.22
2022-12-26T02:20:40.093Z,9.25
2022-12-26T02:24:31.292Z,9.18
2022-12-26T02:27:24.595Z,9.25
2022-12-26T02:30:28.697Z,9.20
2022-12-26T02:33:29.011Z,9.28
2022-12-26T02:36:31.458Z,9.29
2022-12-26T02:40:01.795Z,9.32
2022-12-26T02:43:08.909Z,9.35
2022-12-26T02:46:31.526Z,9.41
2022-12-26T02:50:07.639Z,9.36
2022-12-26T02:53:24.281Z,9.34
2022-12-26T02:56:24.473Z,9.35
2022-12-26T03:00:07.780Z,9.37
2022-12-26T03:03:18.390Z,9.42
2022-12-26T03:06:38.665Z,9.45
2022-12-26T03:09:41.153Z,9.44
2022-12-26T03:13:13.442Z,9.45
2022-12-26T03:16:32.405Z,9.47
2022-12-26T03:19:10.062Z,9.39
2022-12-26T03:21:45.389Z,9.49
2022-12-26T03:24:16.986Z,9.44
2022-12-26T03:26:54.451Z,9.44
2022-12-26T03:29:42.530Z,9.48
2022-12-26T03:32:13.054Z,9.50
2022-12-26T03:34:45.023Z,9.49
2022-12-26T03:37:48.404Z,9.48
2022-12-26T03:41:10.918Z,9.48
2022-12-26T03:44:17.176Z,9.49
2022-12-26T03:48:04.386Z,9.52
2022-12-26T03:51:10.698Z,9.47
2022-12-26T03:54:19.334Z,9.52
2022-12-26T03:57:31.340Z,9.56
2022-12-26T04:00:30.411Z,9.52
2022-12-26T04:03:28.879Z,9.51
2022-12-26T04:06:17.180Z,9.55
2022-12-26T04:09:33.330Z,9.55
2022-12-26T04:12:20.607Z,9.56
2022-12-26T04:15:30.258Z,9.59
2022-12-26T04:18:33.818Z,9.72
2022-12-26T04:21:52.386Z,9.65
2022-12-26T04:24:48.655Z,9.64
2022-12-26T04:27:40.595Z,9.69
2022-12-26T04:30:27.682Z,9.79
2022-12-26T04:33:24.207Z,9.82
2022-12-26T04:36:23.027Z,9.89
2022-12-26T04:39:18.239Z,9.93
2022-12-26T04:42:05.296Z,9.96
2022-12-26T04:44:35.183Z,10.06
2022-12-26T04:47:02.238Z,10.05
2022-12-26T04:49:47.825Z,10.03
2022-12-26T04:52:15.677Z,10.13
2022-12-26T04:54:43.245Z,10.15
2022-12-26T04:57:11.701Z,10.03
2022-12-26T04:59:38.735Z,10.13
2022-12-26T05:02:24.534Z,10.07
2022-12-26T05:05:10.321Z,10.10
2022-12-26T05:07:56.520Z,10.06
2022-12-26T05:10:28.730Z,10.05
2022-12-26T05:12:56.114Z,10.03
2022-12-26T05:15:23.519Z,10.01
2022-12-26T05:18:09.054Z,10.04
2022-12-26T05:20:54.796Z,9.97
2022-12-26T05:23:45.279Z,9.98
2022-12-26T05:26:40.621Z,9.99
2022-12-26T05:29:08.081Z,9.96
2022-12-26T05:31:36.835Z,9.97
2022-12-26T05:34:12.090Z,10.06
2022-12-26T05:36:51.475Z,10.01
2022-12-26T05:39:19.041Z,10.03
2022-12-26T05:41:46.180Z,10.00
2022-12-26T05:44:13.412Z,10.01
2022-12-26T05:46:42.544Z,10.06
2022-12-26T05:49:10.330Z,10.05
2022-12-26T05:51:37.581Z,10.04
2022-12-26T05:54:05.540Z,9.98
2022-12-26T05:56:32.677Z,10.05
2022-12-26T05:59:01.873Z,10.02
2022-12-26T06:01:30.717Z,9.94
2022-12-26T06:04:00.586Z,9.97
2022-12-26T06:06:28.345Z,9.97
2022-12-26T06:08:57.397Z,9.99
2022-12-26T06:11:26.989Z,9.97
2022-12-26T06:13:55.004Z,9.96
2022-12-26T06:16:22.484Z,9.98
2022-12-26T06:18:49.660Z,9.96
2022-12-26T06:21:20.230Z,9.97
2022-12-26T06:23:48.447Z,9.99
2022-12-26T06:26:16.880Z,9.97
2022-12-26T06:28:45.263Z,9.93
2022-12-26T06:31:20.448Z,9.94
2022-12-26T06:33:57.967Z,9.88
2022-12-26T06:36:27.493Z,9.96
2022-12-26T06:38:55.440Z,9.93
2022-12-26T06:41:24.968Z,9.94
2022-12-26T06:43:52.968Z,9.91
2022-12-26T06:46:24.254Z,9.94
2022-12-26T06:48:52.222Z,9.91
2022-12-26T06:51:26.884Z,9.92
2022-12-26T06:53:54.656Z,9.88
2022-12-26T06:56:26.614Z,9.95
2022-12-26T06:58:59.925Z,9.99
2022-12-26T07:01:30.567Z,9.97
2022-12-26T07:03:58.909Z,9.95
2022-12-26T07:06:35.465Z,9.94
2022-12-26T07:09:09.840Z,9.93
2022-12-26T07:11:41.954Z,9.95
2022-12-26T07:14:09.657Z,9.95
2022-12-26T07:16:39.480Z,10.00
2022-12-26T07:19:07.376Z,9.99
2022-12-26T07:21:40.111Z,10.02
2022-12-26T07:24:22.360Z,10.03
2022-12-26T07:26:50.147Z,10.03
2022-12-26T07:29:17.919Z,10.07
2022-12-26T07:31:45.750Z,10.05
2022-12-26T07:34:12.912Z,10.04
2022-12-26T07:36:41.487Z,10.04
2022-12-26T07:39:08.794Z,10.08
2022-12-26T07:41:54.610Z,10.05
2022-12-26T07:44:21.640Z,10.06
2022-12-26T07:46:49.056Z,10.03
2022-12-26T07:49:16.742Z,10.07
2022-12-26T07:51:44.001Z,10.03
2022-12-26T07:54:12.115Z,10.00
2022-12-26T07:56:41.302Z,10.02
2022-12-26T07:59:16.370Z,9.97
2022-12-26T08:01:44.508Z,9.98
2022-12-26T08:04:13.509Z,10.00
2022-12-26T08:06:40.616Z,9.96
2022-12-26T08:09:17.933Z,9.97
2022-12-26T08:11:45.462Z,9.99
2022-12-26T08:14:14.146Z,9.98
2022-12-26T08:16:41.331Z,9.94
2022-12-26T08:19:08.712Z,9.96
2022-12-26T08:21:35.976Z,9.95
2022-12-26T08:24:03.175Z,9.95
2022-12-26T08:26:30.261Z,9.99
2022-12-26T08:28:58.141Z,9.99
2022-12-26T08:33:57.735Z,10.02
2022-12-26T08:36:25.329Z,10.02
2022-12-26T08:38:52.998Z,10.03
2022-12-26T08:41:20.460Z,10.03
2022-12-26T08:46:40.222Z,10.06
2022-12-26T08:49:07.373Z,10.07
2022-12-26T08:51:36.479Z,10.07
2022-12-26T08:54:03.873Z,10.07
2022-12-26T08:56:31.481Z,10.07
2022-12-26T08:58:58.631Z,10.11
2022-12-26T09:01:29.780Z,9.87
2022-12-26T09:04:02.257Z,9.92
2022-12-26T09:06:34.281Z,9.94
2022-12-26T09:09:06.187Z,10.01
2022-12-26T09:11:33.727Z,10.07
2022-12-26T09:14:04.231Z,10.16
2022-12-26T09:16:43.016Z,10.16
2022-12-26T09:19:18.908Z,10.21
2022-12-26T09:21:48.398Z,10.23
2022-12-26T09:24:18.462Z,10.30
2022-12-26T09:26:45.912Z,10.30
2022-12-26T09:29:15.503Z,10.30
2022-12-26T09:31:42.626Z,10.36
2022-12-26T09:34:09.811Z,10.36
2022-12-26T09:36:39.171Z,10.38
2022-12-26T09:39:07.506Z,10.35
2022-12-26T09:42:06.028Z,10.34
2022-12-26T09:45:15.127Z,10.36
2022-12-26T09:48:19.492Z,10.39
2022-12-26T09:50:51.607Z,10.43
2022-12-26T09:53:34.972Z,10.50
2022-12-26T09:56:23.780Z,10.48
2022-12-26T09:59:17.821Z,10.44
2022-12-26T10:01:50.351Z,10.52
2022-12-26T10:04:29.886Z,10.44
2022-12-26T10:07:42.618Z,10.47
2022-12-26T10:10:45.694Z,10.51
2022-12-26T10:13:48.043Z,10.54
2022-12-26T10:17:06.184Z,10.62
2022-12-26T10:19:54.789Z,10.65
2022-12-26T10:23:45.427Z,10.69
2022-12-26T10:26:36.094Z,10.59
2022-12-26T10:29:08.965Z,10.70
2022-12-26T10:31:54.021Z,10.56
2022-12-26T10:34:36.518Z,10.66
2022-12-26T10:37:34.987Z,10.67
2022-12-26T10:40:39.188Z,10.53
2022-12-26T10:43:30.255Z,10.51
2022-12-26T10:46:06.043Z,10.59
2022-12-26T10:48:33.472Z,10.57
2022-12-26T10:51:00.520Z,10.53
2022-12-26T10:53:27.889Z,10.51
2022-12-26T10:55:57.096Z,10.51
2022-12-26T10:58:35.845Z,10.50
2022-12-26T11:01:40.101Z,10.52
2022-12-26T11:07:17.544Z,10.48
2022-12-26T11:09:46.113Z,10.34
2022-12-26T11:12:47.200Z,10.34
2022-12-26T11:15:39.464Z,10.33
2022-12-26T11:18:46.477Z,10.35
2022-12-26T11:21:19.519Z,10.32
2022-12-26T11:23:52.631Z,10.28
2022-12-26T11:26:29.698Z,10.28
2022-12-26T11:29:25.658Z,10.27
2022-12-26T11:32:04.884Z,10.27
2022-12-26T11:34:46.419Z,10.23
2022-12-26T11:37:34.352Z,10.17
2022-12-26T11:40:01.665Z,10.13
2022-12-26T11:42:28.963Z,10.17
2022-12-26T11:44:57.836Z,10.12
2022-12-26T11:47:29.888Z,10.12
2022-12-26T11:50:12.112Z,10.21
2022-12-26T11:52:56.900Z,10.13
2022-12-26T11:55:24.241Z,10.35
2022-12-26T11:58:17.982Z,10.43
2022-12-26T12:00:50.908Z,10.48
2022-12-26T12:03:50.057Z,10.49
2022-12-26T12:06:46.353Z,10.47
2022-12-26T12:09:41.680Z,10.58
2022-12-26T12:12:58.091Z,10.51
2022-12-26T12:16:12.314Z,10.38
2022-12-26T12:19:51.087Z,10.31
2022-12-26T12:22:45.007Z,10.33
2022-12-26T12:26:11.692Z,10.25
2022-12-26T12:29:34.429Z,10.18
2022-12-26T12:33:06.347Z,10.18
2022-12-26T12:36:00.542Z,10.14
2022-12-26T12:39:00.868Z,10.12
2022-12-26T12:42:08.935Z,10.16
2022-12-26T12:46:02.059Z,10.07
2022-12-26T12:49:07.669Z,10.13
2022-12-26T12:52:09.410Z,10.12
2022-12-26T12:55:21.404Z,10.18
2022-12-26T12:58:07.474Z,10.25
2022-12-26T13:00:56.010Z,10.22
2022-12-26T13:03:48.874Z,10.24
2022-12-26T13:06:46.324Z,10.27
2022-12-26T13:09:42.687Z,10.25
2022-12-26T13:12:36.935Z,10.24
2022-12-26T13:15:22.401Z,10.27
2022-12-26T13:18:07.838Z,10.32
2022-12-26T13:20:58.601Z,10.24
2022-12-26T13:23:51.427Z,10.21
2022-12-26T13:26:31.068Z,10.12
2022-12-26T13:29:26.084Z,10.03
2022-12-26T13:31:53.387Z,9.98
2022-12-26T13:34:21.447Z,9.96
2022-12-26T13:36:55.924Z,10.04
2022-12-26T13:39:26.222Z,10.10
2022-12-26T13:42:29.245Z,10.09
2022-12-26T13:45:16.361Z,9.99
2022-12-26T13:47:43.495Z,9.99
2022-12-26T13:50:56.623Z,9.99
2022-12-26T13:53:33.997Z,9.95
2022-12-26T13:56:30.863Z,9.93
2022-12-26T13:59:32.617Z,9.89
2022-12-26T14:03:17.503Z,9.92
2022-12-26T14:05:57.157Z,9.94
2022-12-26T14:09:12.330Z,9.93
2022-12-26T14:12:35.219Z,9.91
2022-12-26T14:15:28.660Z,9.89
2022-12-26T14:18:45.181Z,9.95
2022-12-26T14:21:46.798Z,9.93
2022-12-26T14:24:49.290Z,9.88
2022-12-26T14:27:57.891Z,9.93
2022-12-26T14:31:08.410Z,9.96
2022-12-26T14:34:06.908Z,9.85
2022-12-26T14:37:23.438Z,9.78
2022-12-26T14:40:35.457Z,9.62
2022-12-26T14:43:34.892Z,9.57
2022-12-26T14:46:26.302Z,9.54
2022-12-26T14:48:59.678Z,9.54
2022-12-26T14:51:37.369Z,9.49
2022-12-26T14:54:37.663Z,9.46
2022-12-26T14:57:44.319Z,9.44
2022-12-26T15:00:23.185Z,9.43
2022-12-26T15:03:24.687Z,9.45
2022-12-26T15:05:54.215Z,9.49
2022-12-26T15:09:32.126Z,9.53
2022-12-26T15:12:23.301Z,9.59
2022-12-26T15:15:47.758Z,9.54
2022-12-26T15:19:31.111Z,9.56
2022-12-26T15:22:09.441Z,9.57
2022-12-26T15:25:19.298Z,9.61
2022-12-26T15:28:32.285Z,9.64
2022-12-26T15:31:45.268Z,9.67
2022-12-26T15:34:37.401Z,9.69
2022-12-26T15:37:34.519Z,9.67
2022-12-26T15:40:24.483Z,9.56
2022-12-26T15:43:39.798Z,9.50
2022-12-26T15:46:45.710Z,9.47
2022-12-26T15:50:00.338Z,9.41
2022-12-26T15:53:02.073Z,9.39
2022-12-26T15:56:22.165Z,9.35
2022-12-26T15:59:42.719Z,9.42
2022-12-26T16:02:28.084Z,9.36
2022-12-26T16:05:37.651Z,9.37
2022-12-26T16:08:51.789Z,9.33
2022-12-26T16:11:50.312Z,9.33
2022-12-26T16:14:39.406Z,9.25
2022-12-26T16:17:13.472Z,9.26
2022-12-26T16:19:43.743Z,9.22
2022-12-26T16:22:48.800Z,9.27
2022-12-26T16:25:26.051Z,9.30
2022-12-26T16:27:59.990Z,9.34
2022-12-26T16:30:35.822Z,9.26
2022-12-26T16:33:04.320Z,9.29
2022-12-26T16:35:39.942Z,9.32
2022-12-26T16:38:18.168Z,9.30
2022-12-26T16:40:51.460Z,9.34
2022-12-26T16:43:18.496Z,9.32
2022-12-26T16:45:51.171Z,9.39
2022-12-26T16:48:23.876Z,9.36
2022-12-26T16:51:00.617Z,9.34
2022-12-26T16:53:40.169Z,9.39
2022-12-26T16:56:33.598Z,9.39
2022-12-26T16:59:18.728Z,9.41
2022-12-26T17:02:00.488Z,9.40
2022-12-26T17:04:30.315Z,9.34
2022-12-26T17:07:06.283Z,9.40
2022-12-26T17:09:49.566Z,9.37
2022-12-26T17:12:27.902Z,9.31
2022-12-26T17:14:56.946Z,9.27
2022-12-26T17:17:23.784Z,9.26
2022-12-26T17:19:54.902Z,9.23
2022-12-26T17:22:37.290Z,9.16
2022-12-26T17:25:28.029Z,9.15
2022-12-26T17:28:17.761Z,9.04
2022-12-26T17:30:53.265Z,8.93
2022-12-26T17:33:28.665Z,8.92
2022-12-26T17:38:51.998Z,8.86
2022-12-26T17:41:19.402Z,8.80
2022-12-26T17:43:47.919Z,8.69
2022-12-26T17:46:17.943Z,8.69
2022-12-26T17:48:45.719Z,8.68
2022-12-26T17:51:17.897Z,8.68
2022-12-26T17:53:51.292Z,8.67
2022-12-26T17:56:24.206Z,8.65
2022-12-26T17:58:51.568Z,8.60
2022-12-26T18:01:21.677Z,8.61
2022-12-26T18:03:51.994Z,8.66
2022-12-26T18:06:19.894Z,8.62
2022-12-26T18:08:47.085Z,8.73
2022-12-26T18:11:15.125Z,8.68
2022-12-26T18:13:43.124Z,8.66
2022-12-26T18:16:18.901Z,8.64
2022-12-26T18:18:48.403Z,8.66
2022-12-26T18:21:16.716Z,8.51
2022-12-26T18:23:44.343Z,8.48
2022-12-26T18:26:32.066Z,8.38
2022-12-26T18:28:59.188Z,8.40
2022-12-26T18:31:27.892Z,8.34
2022-12-26T18:33:55.881Z,8.31
2022-12-26T18:36:31.657Z,8.34
2022-12-26T18:38:58.991Z,8.23
2022-12-26T18:41:28.057Z,8.13
2022-12-26T18:43:55.180Z,8.20
2022-12-26T18:46:26.115Z,8.16
2022-12-26T18:48:56.541Z,8.07
2022-12-26T18:51:25.881Z,8.05
2022-12-26T18:53:53.094Z,8.10
2022-12-26T18:56:23.140Z,8.07
2022-12-26T18:58:57.579Z,7.96
2022-12-26T19:01:25.872Z,7.91
2022-12-26T19:03:53.967Z,7.90
2022-12-26T19:06:28.969Z,7.78
2022-12-26T19:08:57.101Z,7.61
2022-12-26T19:11:24.582Z,7.69
2022-12-26T19:13:51.695Z,7.51
2022-12-26T19:16:19.283Z,7.42
2022-12-26T19:18:46.379Z,7.35
2022-12-26T19:21:16.625Z,7.26
2022-12-26T19:23:47.690Z,7.19
2022-12-26T19:26:19.150Z,7.24
2022-12-26T19:28:55.565Z,7.13
2022-12-26T19:31:23.606Z,6.98
2022-12-26T19:33:50.966Z,7.05
2022-12-26T19:36:18.236Z,6.99
2022-12-26T19:38:45.443Z,6.93
2022-12-26T19:41:14.961Z,6.94
2022-12-26T19:43:42.803Z,6.88
2022-12-26T19:46:17.015Z,6.92
2022-12-26T19:48:44.603Z,6.73
2022-12-26T19:51:15.872Z,6.74
2022-12-26T19:53:44.782Z,6.65
2022-12-26T19:56:28.254Z,6.53
2022-12-26T19:58:56.907Z,6.50
2022-12-26T20:01:31.756Z,6.53
2022-12-26T20:04:02.751Z,6.43
2022-12-26T20:06:33.614Z,6.57
2022-12-26T20:09:09.485Z,6.52
2022-12-26T20:11:43.011Z,6.47
2022-12-26T20:14:19.120Z,6.52
2022-12-26T20:17:08.782Z,6.51
2022-12-26T20:19:37.022Z,6.57
2022-12-26T20:22:05.721Z,6.44
2022-12-26T20:24:33.761Z,6.51
2022-12-26T20:27:01.241Z,6.38
2022-12-26T20:29:28.409Z,6.31
2022-12-26T20:31:55.479Z,6.38
2022-12-26T20:34:23.198Z,6.27
2022-12-26T20:36:50.386Z,6.34
2022-12-26T20:39:19.593Z,6.13
2022-12-26T20:41:47.248Z,6.23
2022-12-26T20:44:16.431Z,6.04
2022-12-26T20:46:44.818Z,6.21
2022-12-26T20:49:12.593Z,6.30
2022-12-26T20:51:43.991Z,6.09
2022-12-26T20:54:14.058Z,6.04
2022-12-26T20:56:42.209Z,6.02
2022-12-26T20:59:10.232Z,6.03
2022-12-26T21:01:39.370Z,5.88
2022-12-26T21:04:08.047Z,5.83
2022-12-26T21:06:38.025Z,5.87
2022-12-26T21:09:09.269Z,5.81
2022-12-26T21:11:39.972Z,5.75
2022-12-26T21:14:21.920Z,5.81
2022-12-26T21:16:57.056Z,5.60
2022-12-26T21:19:28.129Z,5.73
2022-12-26T21:21:56.503Z,5.71
2022-12-26T21:24:29.395Z,5.82
2022-12-26T21:26:57.261Z,5.71
2022-12-26T21:29:33.242Z,5.61
2022-12-26T21:32:03.065Z,5.60
2022-12-26T21:34:33.010Z,5.48
2022-12-26T21:37:19.284Z,5.46
2022-12-26T21:39:47.432Z,5.43
2022-12-26T21:42:14.605Z,5.43
2022-12-26T21:44:41.797Z,5.35
2022-12-26T21:47:09.228Z,5.46
2022-12-26T21:49:37.291Z,5.47
2022-12-26T21:52:06.316Z,5.59
2022-12-26T21:54:52.527Z,5.63
2022-12-26T21:57:20.782Z,5.56
2022-12-26T21:59:57.071Z,5.59
2022-12-26T22:02:53.839Z,5.67
2022-12-26T22:05:28.111Z,5.59
2022-12-26T22:08:01.605Z,5.65
2022-12-26T22:10:51.387Z,5.71
2022-12-26T22:13:20.427Z,5.64
2022-12-26T22:16:05.358Z,5.63
2022-12-26T22:18:46.599Z,5.66
2022-12-26T22:21:21.560Z,5.74
2022-12-26T22:23:51.313Z,5.72
2022-12-26T22:26:21.477Z,5.69
2022-12-26T22:28:49.851Z,5.62
2022-12-26T22:31:25.505Z,5.71
2022-12-26T22:34:03.464Z,5.66
2022-12-26T22:36:32.319Z,5.65
2022-12-26T22:39:00.416Z,5.63
2022-12-26T22:41:28.736Z,5.71
2022-12-26T22:43:56.260Z,5.42
2022-12-26T22:46:23.490Z,5.56
2022-12-26T22:48:51.044Z,5.52
2022-12-26T22:51:23.004Z,5.54
2022-12-26T22:53:54.263Z,5.55
2022-12-26T22:56:21.379Z,5.55
2022-12-26T22:58:54.729Z,5.55
2022-12-26T23:01:22.994Z,5.47
2022-12-26T23:03:50.316Z,5.55
2022-12-26T23:06:24.730Z,5.51
2022-12-26T23:08:56.815Z,5.49
2022-12-26T23:11:34.465Z,5.51
2022-12-26T23:14:05.908Z,5.48
2022-12-26T23:16:56.238Z,5.59
2022-12-26T23:20:05.320Z,5.62
2022-12-26T23:22:33.345Z,5.53
2022-12-26T23:25:00.462Z,5.64
2022-12-26T23:27:46.045Z,5.54
2022-12-26T23:30:20.015Z,5.48
2022-12-26T23:32:53.225Z,5.51
2022-12-26T23:35:22.632Z,5.51
2022-12-26T23:37:50.598Z,5.32
2022-12-26T23:40:20.505Z,5.40
2022-12-26T23:42:47.763Z,5.45
2022-12-26T23:45:16.208Z,5.40
2022-12-26T23:47:45.712Z,5.45
2022-12-26T23:50:15.793Z,5.44
2022-12-26T23:52:43.837Z,5.46
2022-12-26T23:55:11.749Z,5.30
2022-12-26T23:57:38.891Z,5.39
